Time;durP1;ratioP1;P1;durP2;ratioP2;P2;SDS_P1;SDS_P2;PMS_P1;PMS_P2;Temp;Humidity;BMP_temperature;BMP_pressure;BME280_temperature;BME280_humidity;BME280_pressure;Samples;Min_cycle;Max_cycle;Signal;HPM_P1;HPM_P2
2022/04/08 00:01:34;;;;;;;11.07;1.88;;;5.70;99.90;;;;;;5054301;28;20021;-77
2022/04/08 00:04:00;;;;;;;8.75;1.98;;;5.60;99.90;;;;;;5072629;28;20078;-77
2022/04/08 00:06:26;;;;;;;7.38;1.92;;;5.60;99.90;;;;;;5044842;28;20021;-77
2022/04/08 00:08:51;;;;;;;9.30;1.73;;;5.60;99.90;;;;;;5053941;28;20024;-76
2022/04/08 00:11:17;;;;;;;4.55;1.23;;;5.50;99.90;;;;;;5053411;28;20476;-77
2022/04/08 00:13:43;;;;;;;9.15;1.85;;;5.50;99.90;;;;;;5045144;28;20122;-77
2022/04/08 00:16:09;;;;;;;6.90;1.80;;;5.50;99.90;;;;;;5046068;28;20508;-78
2022/04/08 00:18:36;;;;;;;5.00;1.10;;;5.50;99.90;;;;;;5054763;28;20107;-76
2022/04/08 00:21:03;;;;;;;5.43;1.20;;;5.40;99.90;;;;;;5052927;28;20052;-77
2022/04/08 00:23:29;;;;;;;8.90;1.60;;;5.40;99.90;;;;;;5068825;28;20369;-76
2022/04/08 00:25:55;;;;;;;4.57;1.30;;;5.30;99.90;;;;;;5053700;28;20020;-77
2022/04/08 00:28:21;;;;;;;5.70;1.10;;;5.40;99.90;;;;;;5041942;28;20019;-77
2022/04/08 00:30:47;;;;;;;4.45;1.27;;;5.40;99.90;;;;;;5032628;28;20035;-77
2022/04/08 00:33:12;;;;;;;5.60;0.98;;;5.40;99.90;;;;;;5076414;28;20400;-76
2022/04/08 00:35:38;;;;;;;5.93;1.05;;;5.40;99.90;;;;;;5058485;28;20032;-77
2022/04/08 00:38:04;;;;;;;10.43;1.23;;;5.30;99.90;;;;;;5025633;28;20045;-78
2022/04/08 00:40:30;;;;;;;6.72;1.00;;;5.30;99.90;;;;;;5075936;28;20028;-77
2022/04/08 00:42:56;;;;;;;7.38;1.67;;;5.30;99.90;;;;;;5091579;28;20048;-77
2022/04/08 00:45:21;;;;;;;10.73;1.10;;;5.30;99.90;;;;;;5055477;28;20059;-77
2022/04/08 00:47:48;;;;;;;5.32;1.10;;;5.30;99.90;;;;;;5055629;28;20051;-77
2022/04/08 00:50:14;;;;;;;11.18;1.58;;;5.30;99.90;;;;;;5038581;28;20664;-77
2022/04/08 00:52:41;;;;;;;8.43;1.30;;;5.30;99.90;;;;;;5042980;28;20032;-76
2022/04/08 00:55:10;;;;;;;7.95;1.38;;;5.30;99.90;;;;;;5060223;28;20024;-76
2022/04/08 00:57:36;;;;;;;4.57;1.13;;;5.30;99.90;;;;;;5054597;28;20024;-77
2022/04/08 01:00:09;;;;;;;6.60;1.35;;;5.20;99.90;;;;;;5072616;28;20021;-77
2022/04/08 01:02:35;;;;;;;10.07;1.58;;;5.20;99.90;;;;;;5068699;28;20025;-77
2022/04/08 01:05:01;;;;;;;5.35;1.42;;;5.20;99.90;;;;;;5044626;28;20120;-77
2022/04/08 01:07:27;;;;;;;10.73;1.67;;;5.20;99.90;;;;;;5069500;28;20024;-77
2022/04/08 01:09:52;;;;;;;12.98;1.80;;;5.10;99.90;;;;;;5075912;28;20110;-77
2022/04/08 01:12:19;;;;;;;6.95;1.20;;;5.20;99.90;;;;;;5054660;28;20025;-77
2022/04/08 01:14:44;;;;;;;7.75;1.17;;;5.30;99.90;;;;;;5061249;28;20049;-77
2022/04/08 01:17:10;;;;;;;9.57;1.50;;;5.30;99.90;;;;;;5072451;28;20036;-77
2022/04/08 01:19:36;;;;;;;15.35;1.65;;;5.30;99.90;;;;;;5074619;28;20093;-77
2022/04/08 01:22:03;;;;;;;10.75;1.50;;;5.20;99.90;;;;;;5054343;28;20032;-78
2022/04/08 01:24:33;;;;;;;8.35;1.65;;;5.30;99.90;;;;;;5045312;28;20470;-77
2022/04/08 01:26:59;;;;;;;11.88;1.58;;;5.30;99.90;;;;;;5088757;28;20024;-77
2022/04/08 01:29:24;;;;;;;10.18;1.77;;;5.30;99.90;;;;;;5064693;28;20745;-77
2022/04/08 01:31:50;;;;;;;10.02;1.52;;;5.20;99.90;;;;;;5066516;28;20060;-77
2022/04/08 01:34:15;;;;;;;11.80;1.50;;;5.20;99.90;;;;;;5056375;28;20612;-77
2022/04/08 01:36:41;;;;;;;12.10;2.00;;;5.20;99.90;;;;;;5054482;28;20031;-77
2022/04/08 01:39:07;;;;;;;11.73;1.73;;;5.20;99.90;;;;;;5040369;28;20025;-77
2022/04/08 01:41:32;;;;;;;10.10;1.95;;;5.20;99.90;;;;;;5052146;28;20419;-77
2022/04/08 01:43:59;;;;;;;9.57;1.80;;;5.30;99.90;;;;;;5045365;28;20051;-77
2022/04/08 01:46:25;;;;;;;9.40;1.48;;;5.20;99.90;;;;;;5081119;28;20071;-77
2022/04/08 01:48:54;;;;;;;8.60;2.00;;;5.30;99.90;;;;;;5043973;28;20508;-76
2022/04/08 01:51:23;;;;;;;15.18;2.13;;;5.40;99.90;;;;;;5052585;28;20032;-77
2022/04/08 01:53:49;;;;;;;17.10;2.63;;;5.40;99.90;;;;;;5055267;28;20025;-77
2022/04/08 01:56:15;;;;;;;9.38;1.80;;;5.40;99.90;;;;;;5053627;28;20055;-77
2022/04/08 01:58:41;;;;;;;9.38;1.63;;;5.30;99.90;;;;;;5070472;28;20048;-78
2022/04/08 02:01:06;;;;;;;11.65;1.60;;;5.30;99.90;;;;;;5045015;28;20483;-77
2022/04/08 02:03:33;;;;;;;13.02;2.72;;;5.20;99.90;;;;;;5049352;28;20021;-78
2022/04/08 02:05:59;;;;;;;6.68;1.58;;;5.20;99.90;;;;;;5060993;28;20035;-78
2022/04/08 02:08:24;;;;;;;9.75;1.70;;;5.20;99.90;;;;;;5050860;28;20041;-78
2022/04/08 02:10:53;;;;;;;6.57;1.52;;;5.20;99.90;;;;;;5073609;28;20122;-77
2022/04/08 02:13:19;;;;;;;7.03;1.33;;;5.20;99.90;;;;;;5036724;28;20055;-77
2022/04/08 02:15:46;;;;;;;11.13;1.85;;;5.20;99.90;;;;;;5061459;28;20024;-77
2022/04/08 02:18:12;;;;;;;9.85;1.30;;;5.20;99.90;;;;;;5056310;28;20044;-77
2022/04/08 02:20:39;;;;;;;7.50;1.27;;;5.10;99.90;;;;;;5058250;28;20025;-77
2022/04/08 02:23:05;;;;;;;10.70;1.77;;;5.10;99.90;;;;;;5055669;28;20032;-77
2022/04/08 02:25:31;;;;;;;10.18;1.50;;;5.20;99.90;;;;;;5081557;28;20028;-77
2022/04/08 02:27:58;;;;;;;12.10;2.20;;;5.10;99.90;;;;;;5082360;28;20028;-77
2022/04/08 02:30:23;;;;;;;7.35;1.63;;;5.20;99.90;;;;;;5061584;28;20036;-77
2022/04/08 02:32:49;;;;;;;8.43;1.60;;;5.20;99.90;;;;;;5059010;28;20024;-78
2022/04/08 02:35:15;;;;;;;12.95;1.60;;;5.30;99.90;;;;;;5090039;28;20478;-78
2022/04/08 02:37:41;;;;;;;9.43;1.92;;;5.20;99.90;;;;;;5078572;28;20241;-77
2022/04/08 02:40:07;;;;;;;6.65;1.20;;;5.20;99.90;;;;;;5059466;28;20029;-77
2022/04/08 02:42:33;;;;;;;8.70;1.60;;;5.10;99.90;;;;;;5073139;28;20025;-77
2022/04/08 02:44:58;;;;;;;8.27;1.27;;;5.20;99.90;;;;;;5066659;28;20451;-77
2022/04/08 02:47:24;;;;;;;9.00;2.00;;;5.20;99.90;;;;;;5036161;28;20029;-77
2022/04/08 02:49:50;;;;;;;6.68;1.23;;;5.10;99.90;;;;;;5061896;28;20080;-78
2022/04/08 02:52:16;;;;;;;15.90;2.17;;;5.10;99.90;;;;;;5069195;28;20043;-78
2022/04/08 02:54:41;;;;;;;8.63;1.70;;;5.00;99.90;;;;;;5056702;28;20401;-77
2022/04/08 02:57:07;;;;;;;8.10;2.00;;;5.10;99.90;;;;;;5058935;28;20150;-77
2022/04/08 02:59:32;;;;;;;14.68;2.00;;;5.10;99.90;;;;;;5096401;28;20423;-77
2022/04/08 03:01:58;;;;;;;7.93;2.10;;;5.00;99.90;;;;;;5060206;28;20682;-77
2022/04/08 03:04:25;;;;;;;16.70;1.70;;;5.00;99.90;;;;;;5071931;28;20017;-77
2022/04/08 03:06:52;;;;;;;13.10;1.77;;;4.90;99.90;;;;;;5055393;28;20032;-77
2022/04/08 03:09:18;;;;;;;17.08;2.65;;;4.90;99.90;;;;;;5024587;28;20504;-77
2022/04/08 03:11:43;;;;;;;9.20;1.50;;;4.90;99.90;;;;;;5038087;28;20063;-77
2022/04/08 03:14:09;;;;;;;10.95;1.75;;;4.90;99.90;;;;;;5057290;28;20096;-79
2022/04/08 03:16:35;;;;;;;13.30;2.28;;;4.90;99.90;;;;;;5051409;28;20029;-79
2022/04/08 03:19:00;;;;;;;11.05;1.98;;;4.90;99.90;;;;;;5056730;28;20056;-79
2022/04/08 03:21:27;;;;;;;15.18;2.70;;;5.00;99.90;;;;;;5096417;28;20048;-77
2022/04/08 03:23:53;;;;;;;14.32;1.67;;;4.90;99.90;;;;;;5063379;28;20394;-78
2022/04/08 03:26:19;;;;;;;11.45;1.85;;;4.90;99.90;;;;;;5072307;28;20020;-79
2022/04/08 03:28:45;;;;;;;10.20;1.63;;;4.90;99.90;;;;;;5039470;28;20030;-78
2022/04/08 03:31:13;;;;;;;8.65;1.40;;;4.80;99.90;;;;;;5040389;28;20119;-80
2022/04/08 03:33:39;;;;;;;7.10;1.52;;;4.80;99.90;;;;;;5076950;28;20033;-77
2022/04/08 03:36:05;;;;;;;8.30;1.98;;;4.80;99.90;;;;;;5048327;28;20028;-79
2022/04/08 03:38:31;;;;;;;11.45;1.70;;;4.80;99.90;;;;;;5060137;28;20035;-77
2022/04/08 03:40:56;;;;;;;11.82;1.80;;;4.70;99.90;;;;;;5072160;28;20079;-78
2022/04/08 03:43:22;;;;;;;5.28;1.35;;;4.80;99.90;;;;;;5067106;28;20025;-80
2022/04/08 03:45:48;;;;;;;9.70;1.50;;;4.80;99.90;;;;;;5049615;28;20082;-78
2022/04/08 03:48:14;;;;;;;8.32;1.67;;;4.70;99.90;;;;;;5082539;28;20432;-78
2022/04/08 03:50:39;;;;;;;12.20;1.88;;;4.70;99.90;;;;;;5022157;28;20595;-77
2022/04/08 03:53:09;;;;;;;9.35;1.92;;;4.70;99.90;;;;;;5049469;28;20052;-78
2022/04/08 03:55:35;;;;;;;12.73;2.20;;;4.70;99.90;;;;;;5071105;28;20029;-78
2022/04/08 03:58:01;;;;;;;16.92;2.97;;;4.70;99.90;;;;;;5064369;28;20385;-78
2022/04/08 04:00:27;;;;;;;9.30;1.50;;;4.70;99.90;;;;;;5059882;28;20032;-78
2022/04/08 04:02:52;;;;;;;10.80;2.20;;;4.60;99.90;;;;;;5042458;28;20040;-79
2022/04/08 04:05:18;;;;;;;11.00;1.50;;;4.70;99.90;;;;;;5094706;28;20043;-77
2022/04/08 04:07:44;;;;;;;9.57;1.50;;;4.70;99.90;;;;;;5053825;28;20025;-78
2022/04/08 04:10:11;;;;;;;12.98;1.45;;;4.70;99.90;;;;;;5062469;28;20079;-78
2022/04/08 04:12:38;;;;;;;4.85;1.25;;;4.70;99.90;;;;;;5051813;28;20035;-77
2022/04/08 04:15:05;;;;;;;10.63;1.65;;;4.60;99.90;;;;;;5065237;28;20033;-77
2022/04/08 04:17:30;;;;;;;11.63;2.20;;;4.60;99.90;;;;;;5057268;28;20047;-78
2022/04/08 04:19:56;;;;;;;11.00;1.30;;;4.60;99.90;;;;;;5042107;28;20119;-78
2022/04/08 04:22:22;;;;;;;18.05;2.08;;;4.60;99.90;;;;;;5061630;28;20032;-78
2022/04/08 04:24:47;;;;;;;9.68;1.83;;;4.70;99.90;;;;;;5075369;28;20021;-78
2022/04/08 04:27:13;;;;;;;8.85;2.15;;;4.60;99.90;;;;;;5077936;28;20396;-78
2022/04/08 04:29:38;;;;;;;7.80;1.45;;;4.60;99.90;;;;;;5076619;28;20407;-78
2022/04/08 04:32:06;;;;;;;8.23;2.08;;;4.60;99.90;;;;;;5059163;28;20033;-78
2022/04/08 04:34:37;;;;;;;8.00;1.45;;;4.60;99.90;;;;;;5077112;28;21304;-80
2022/04/08 04:37:04;;;;;;;8.93;1.47;;;4.60;99.90;;;;;;5065414;28;20025;-79
2022/04/08 04:39:30;;;;;;;13.57;2.35;;;4.50;99.90;;;;;;5057018;28;20036;-79
2022/04/08 04:41:55;;;;;;;10.85;1.55;;;4.50;99.90;;;;;;5076528;28;20031;-79
2022/04/08 04:44:21;;;;;;;10.25;1.58;;;4.40;99.90;;;;;;5092925;28;20411;-79
2022/04/08 04:46:47;;;;;;;4.80;1.17;;;4.40;99.90;;;;;;5060589;28;20033;-79
2022/04/08 04:49:13;;;;;;;20.50;2.25;;;4.30;99.90;;;;;;5062507;28;20021;-79
2022/04/08 04:51:40;;;;;;;15.10;1.65;;;4.30;99.90;;;;;;5079219;28;20489;-76
2022/04/08 04:54:06;;;;;;;13.35;1.92;;;4.40;99.90;;;;;;5054084;28;20105;-78
2022/04/08 04:56:32;;;;;;;16.95;2.72;;;4.40;99.90;;;;;;5053768;28;21337;-78
2022/04/08 04:58:57;;;;;;;10.15;1.40;;;4.40;99.90;;;;;;5056426;28;20021;-77
2022/04/08 05:01:23;;;;;;;9.90;1.95;;;4.30;99.90;;;;;;5055891;28;20061;-78
2022/04/08 05:03:49;;;;;;;16.42;2.10;;;4.30;99.90;;;;;;5057530;28;20028;-79
2022/04/08 05:06:16;;;;;;;13.63;2.15;;;4.30;99.90;;;;;;5058677;28;20080;-78
2022/04/08 05:08:42;;;;;;;11.77;1.75;;;4.30;99.90;;;;;;5061099;28;20044;-78
2022/04/08 05:11:07;;;;;;;10.77;1.80;;;4.40;99.90;;;;;;5076843;28;20582;-79
2022/04/08 05:13:33;;;;;;;12.98;1.95;;;4.40;99.90;;;;;;5074170;28;20571;-78
2022/04/08 05:15:59;;;;;;;9.50;1.70;;;4.40;99.90;;;;;;5059406;28;20499;-77
2022/04/08 05:18:25;;;;;;;14.93;2.13;;;4.50;99.90;;;;;;5045588;28;20016;-79
2022/04/08 05:20:52;;;;;;;9.73;1.80;;;4.50;99.90;;;;;;5041585;28;20020;-77
2022/04/08 05:23:19;;;;;;;9.75;1.70;;;4.50;99.90;;;;;;5066697;28;20035;-78
2022/04/08 05:25:44;;;;;;;11.95;2.08;;;4.40;99.90;;;;;;5066894;28;20103;-78
2022/04/08 05:28:12;;;;;;;15.57;2.13;;;4.40;99.90;;;;;;5095771;28;20564;-78
2022/04/08 05:30:38;;;;;;;14.95;2.03;;;4.50;99.90;;;;;;5077699;28;20093;-77
2022/04/08 05:33:04;;;;;;;10.27;1.75;;;4.50;99.90;;;;;;5076388;28;20034;-79
2022/04/08 05:35:30;;;;;;;10.00;1.65;;;4.40;99.90;;;;;;5073541;28;20512;-77
2022/04/08 05:37:56;;;;;;;11.18;1.95;;;4.40;99.90;;;;;;5063117;28;20024;-78
2022/04/08 05:40:22;;;;;;;10.27;1.65;;;4.40;99.90;;;;;;5047540;28;20041;-78
2022/04/08 05:42:49;;;;;;;9.27;1.40;;;4.40;99.90;;;;;;5075375;28;20117;-79
2022/04/08 05:45:21;;;;;;;9.60;1.95;;;4.40;99.90;;;;;;5051197;28;20043;-78
2022/04/08 05:47:50;;;;;;;12.23;1.55;;;4.40;99.90;;;;;;5080779;28;20545;-78
2022/04/08 05:50:18;;;;;;;11.63;2.35;;;4.40;99.90;;;;;;5073210;28;20508;-78
2022/04/08 05:52:45;;;;;;;10.20;2.58;;;4.40;99.90;;;;;;5051682;28;20107;-78
2022/04/08 05:55:11;;;;;;;9.70;1.35;;;4.60;99.90;;;;;;5092041;28;20028;-78
2022/04/08 05:57:42;;;;;;;16.90;1.77;;;4.50;99.90;;;;;;5072752;28;20126;-78
2022/04/08 06:00:13;;;;;;;9.88;1.80;;;4.50;99.90;;;;;;5057735;28;20446;-78
2022/04/08 06:02:43;;;;;;;13.82;1.85;;;4.50;99.90;;;;;;5079738;28;20090;-78
2022/04/08 06:05:09;;;;;;;10.63;1.70;;;4.40;99.90;;;;;;5055327;28;20028;-78
2022/04/08 06:07:43;;;;;;;10.73;1.52;;;4.30;99.90;;;;;;5066451;28;20443;-77
2022/04/08 06:10:08;;;;;;;10.60;1.85;;;4.40;99.90;;;;;;5062381;28;20059;-78
2022/04/08 06:12:34;;;;;;;7.45;1.50;;;4.40;99.90;;;;;;5075830;28;20024;-78
2022/04/08 06:15:00;;;;;;;10.50;1.48;;;4.50;99.90;;;;;;5072332;28;20028;-78
2022/04/08 06:17:35;;;;;;;11.13;1.95;;;4.60;99.90;;;;;;5069815;28;20036;-80
2022/04/08 06:20:01;;;;;;;9.60;1.70;;;4.60;99.90;;;;;;5052960;28;20040;-78
2022/04/08 06:22:26;;;;;;;13.90;2.30;;;4.70;99.90;;;;;;5069713;28;20123;-77
2022/04/08 06:24:52;;;;;;;12.73;1.85;;;4.80;99.90;;;;;;5033083;28;20025;-77
2022/04/08 06:27:18;;;;;;;10.57;2.00;;;4.80;99.90;;;;;;5040844;28;20023;-77
2022/04/08 06:29:43;;;;;;;12.50;1.73;;;4.90;99.90;;;;;;5038902;28;20725;-77
2022/04/08 06:32:09;;;;;;;9.57;1.50;;;4.90;99.90;;;;;;5076643;28;20054;-77
2022/04/08 06:34:34;;;;;;;13.77;2.17;;;5.00;99.90;;;;;;5073203;28;20028;-79
2022/04/08 06:37:00;;;;;;;7.97;1.90;;;4.90;99.90;;;;;;5056940;28;20036;-78
2022/04/08 06:39:26;;;;;;;11.48;1.73;;;5.00;99.90;;;;;;5047938;28;20040;-78
2022/04/08 06:41:51;;;;;;;9.18;1.58;;;5.00;99.90;;;;;;5038241;28;20028;-78
2022/04/08 06:44:17;;;;;;;7.38;1.75;;;5.00;99.90;;;;;;5054364;28;20017;-77
2022/04/08 06:46:43;;;;;;;13.27;2.15;;;5.10;99.90;;;;;;5067418;28;20082;-78
2022/04/08 06:49:09;;;;;;;10.60;2.55;;;5.20;99.90;;;;;;5026552;28;20024;-78
2022/04/08 06:51:35;;;;;;;9.35;1.75;;;5.20;99.90;;;;;;5035780;28;20032;-78
2022/04/08 06:54:00;;;;;;;15.35;2.25;;;5.20;99.90;;;;;;5055139;28;20032;-78
2022/04/08 06:56:28;;;;;;;9.73;1.80;;;5.30;99.90;;;;;;5054403;28;20058;-78
2022/04/08 06:58:54;;;;;;;10.07;1.65;;;5.30;99.90;;;;;;5042408;28;20090;-80
2022/04/08 07:01:19;;;;;;;8.23;1.38;;;5.30;99.90;;;;;;5073135;28;20029;-79
2022/04/08 07:03:45;;;;;;;11.13;1.35;;;5.40;99.90;;;;;;5074850;28;20032;-78
2022/04/08 07:06:15;;;;;;;7.63;1.83;;;5.40;99.90;;;;;;5044529;28;20012;-79
2022/04/08 07:08:40;;;;;;;6.90;1.27;;;5.30;99.90;;;;;;5074429;28;20036;-79
2022/04/08 07:11:06;;;;;;;6.03;1.30;;;5.30;99.90;;;;;;5054507;28;20024;-78
2022/04/08 07:13:32;;;;;;;4.65;1.15;;;5.30;99.90;;;;;;5038942;28;20107;-79
2022/04/08 07:15:57;;;;;;;7.13;1.20;;;5.30;99.90;;;;;;5046789;28;20044;-79
2022/04/08 07:18:23;;;;;;;5.95;1.23;;;5.30;99.90;;;;;;5042537;28;20027;-80
2022/04/08 07:20:50;;;;;;;7.32;1.27;;;5.40;99.90;;;;;;5058242;28;20492;-78
2022/04/08 07:23:16;;;;;;;8.25;1.60;;;5.40;99.90;;;;;;5074207;28;20047;-79
2022/04/08 07:25:43;;;;;;;6.38;1.10;;;5.50;99.90;;;;;;5041318;28;20029;-79
2022/04/08 07:28:09;;;;;;;7.50;1.30;;;5.50;99.90;;;;;;5026074;28;20025;-79
2022/04/08 07:30:35;;;;;;;4.15;1.33;;;5.50;99.90;;;;;;5042925;28;20532;-79
2022/04/08 07:33:01;;;;;;;2.72;1.02;;;5.50;99.90;;;;;;5063659;28;20029;-79
2022/04/08 07:35:28;;;;;;;4.43;0.90;;;5.50;99.90;;;;;;5036674;28;20071;-79
2022/04/08 07:37:54;;;;;;;3.80;0.80;;;5.60;99.90;;;;;;5069038;28;20047;-79
2022/04/08 07:40:21;;;;;;;3.78;0.70;;;5.70;99.90;;;;;;5056712;28;20036;-79
2022/04/08 07:42:47;;;;;;;3.33;0.90;;;5.70;99.90;;;;;;5036553;28;20033;-79
2022/04/08 07:45:12;;;;;;;6.32;1.92;;;5.80;99.90;;;;;;5039494;28;20056;-80
2022/04/08 07:47:38;;;;;;;4.18;0.82;;;5.90;99.90;;;;;;5054997;28;20102;-78
2022/04/08 07:50:09;;;;;;;1.75;0.50;;;5.90;99.90;;;;;;5054428;28;20587;-80
2022/04/08 07:52:35;;;;;;;2.53;0.68;;;6.00;99.90;;;;;;5035787;28;20031;-80
2022/04/08 07:55:00;;;;;;;1.90;0.68;;;6.00;99.90;;;;;;5072622;28;20029;-79
2022/04/08 07:57:26;;;;;;;2.25;0.80;;;6.10;99.90;;;;;;5032094;28;20051;-80
2022/04/08 07:59:52;;;;;;;3.33;1.15;;;6.10;99.90;;;;;;5057983;28;20055;-80
2022/04/08 08:02:18;;;;;;;5.05;0.90;;;6.20;99.90;;;;;;5038128;28;20120;-80
2022/04/08 08:04:44;;;;;;;6.57;1.17;;;6.30;99.90;;;;;;5038825;28;20481;-80
2022/04/08 08:07:10;;;;;;;3.92;1.08;;;6.30;99.90;;;;;;5041775;28;20061;-80
2022/04/08 08:09:36;;;;;;;3.47;0.98;;;6.20;99.90;;;;;;5057281;28;20023;-80
2022/04/08 08:12:03;;;;;;;3.78;0.93;;;6.20;99.90;;;;;;5029944;28;20445;-80
2022/04/08 08:14:29;;;;;;;4.93;1.00;;;6.30;99.90;;;;;;5037062;28;20024;-81
2022/04/08 08:16:55;;;;;;;7.35;1.38;;;6.30;99.90;;;;;;5031496;28;20032;-81
2022/04/08 08:19:23;;;;;;;6.88;1.20;;;6.30;99.90;;;;;;5061151;28;20025;-79
2022/04/08 08:21:49;;;;;;;4.10;1.35;;;6.20;99.90;;;;;;5041672;28;20090;-78
2022/04/08 08:24:14;;;;;;;11.05;1.85;;;6.00;99.90;;;;;;5058353;28;20025;-80
2022/04/08 08:26:40;;;;;;;5.57;1.30;;;6.10;99.90;;;;;;5034060;28;20512;-79
2022/04/08 08:29:06;;;;;;;9.15;2.72;;;6.10;99.90;;;;;;5032657;28;20021;-79
2022/04/08 08:31:32;;;;;;;6.15;1.55;;;6.20;99.90;;;;;;5077156;28;20028;-80
2022/04/08 08:33:58;;;;;;;8.98;1.38;;;6.40;99.90;;;;;;5035247;28;20025;-79
2022/04/08 08:36:24;;;;;;;5.53;1.50;;;6.50;99.90;;;;;;5061846;28;20029;-80
2022/04/08 08:38:49;;;;;;;8.65;1.70;;;6.70;99.90;;;;;;5048853;28;20686;-81
2022/04/08 08:41:19;;;;;;;8.13;1.70;;;6.80;99.90;;;;;;5026595;28;20485;-79
2022/04/08 08:43:45;;;;;;;6.45;1.40;;;6.90;99.90;;;;;;5036589;28;20477;-80
2022/04/08 08:46:12;;;;;;;10.50;1.70;;;6.90;99.90;;;;;;5041878;28;20078;-80
2022/04/08 08:48:38;;;;;;;10.43;1.30;;;6.90;99.90;;;;;;5050023;28;20031;-81
2022/04/08 08:51:06;;;;;;;9.00;1.75;;;6.90;99.90;;;;;;5046513;28;20033;-78
2022/04/08 08:53:33;;;;;;;8.75;1.55;;;6.90;99.90;;;;;;5073847;28;20017;-79
2022/04/08 08:56:00;;;;;;;7.03;1.42;;;7.00;99.90;;;;;;5045313;28;20067;-79
2022/04/08 08:58:30;;;;;;;6.05;2.13;;;7.00;99.90;;;;;;5041069;28;20041;-79
2022/04/08 09:00:57;;;;;;;9.43;2.00;;;7.00;99.90;;;;;;5032758;28;20024;-79
2022/04/08 09:03:29;;;;;;;9.38;1.80;;;7.20;99.90;;;;;;5051868;28;20392;-79
2022/04/08 09:06:04;;;;;;;5.07;1.63;;;7.20;99.90;;;;;;5056456;28;20089;-82
2022/04/08 09:08:34;;;;;;;10.75;2.15;;;7.20;99.90;;;;;;5042719;28;20104;-79
2022/04/08 09:11:00;;;;;;;7.45;1.52;;;7.30;99.90;;;;;;5070904;28;20039;-79
2022/04/08 09:13:27;;;;;;;7.60;1.30;;;7.50;99.90;;;;;;5059903;28;20024;-81
2022/04/08 09:16:00;;;;;;;7.93;1.58;;;7.50;99.90;;;;;;5075038;28;20222;-79
2022/04/08 09:18:34;;;;;;;4.43;1.45;;;7.50;99.90;;;;;;5053611;28;20044;-79
2022/04/08 09:21:00;;;;;;;6.93;1.30;;;7.50;99.90;;;;;;5057601;28;20476;-79
2022/04/08 09:23:28;;;;;;;5.82;1.23;;;7.50;99.90;;;;;;5076281;28;20025;-78
2022/04/08 09:26:09;;;;;;;4.50;1.20;;;7.50;99.90;;;;;;5042583;28;20690;-79
2022/04/08 09:28:37;;;;;;;3.45;1.15;;;7.50;99.90;;;;;;5071473;28;20115;-82
2022/04/08 09:31:04;;;;;;;3.65;1.02;;;7.50;99.90;;;;;;5077468;28;20021;-80
2022/04/08 09:33:31;;;;;;;4.35;1.25;;;7.50;99.90;;;;;;5058680;28;20059;-81
2022/04/08 09:35:58;;;;;;;6.40;1.30;;;7.60;99.90;;;;;;5060583;28;20099;-82
2022/04/08 09:38:26;;;;;;;4.97;1.33;;;7.70;99.90;;;;;;5058851;28;20084;-80
2022/04/08 09:41:10;;;;;;;4.30;1.25;;;7.60;99.90;;;;;;5077174;28;20509;-81
2022/04/08 09:43:37;;;;;;;7.68;1.25;;;7.60;99.90;;;;;;5058729;28;20043;-81
2022/04/08 09:46:14;;;;;;;7.10;1.50;;;7.50;99.90;;;;;;5045812;28;20024;-81
2022/04/08 09:48:41;;;;;;;4.93;1.17;;;7.70;99.90;;;;;;5061667;28;20036;-80
2022/04/08 09:51:09;;;;;;;5.78;1.13;;;7.60;99.90;;;;;;5058547;28;20063;-80
2022/04/08 09:53:41;;;;;;;5.28;1.45;;;7.70;99.90;;;;;;5064546;28;20098;-79
2022/04/08 09:56:14;;;;;;;6.40;1.23;;;7.80;99.90;;;;;;5061610;28;20115;-81
2022/04/08 09:58:45;;;;;;;3.75;1.45;;;7.80;99.90;;;;;;5060182;28;20536;-80
2022/04/08 10:01:11;;;;;;;4.67;1.10;;;7.80;99.90;;;;;;5062543;28;20033;-80
2022/04/08 10:03:37;;;;;;;11.18;1.73;;;7.80;99.90;;;;;;5051909;28;20040;-80
2022/04/08 10:06:03;;;;;;;8.43;1.27;;;7.90;99.90;;;;;;5083577;28;20040;-81
2022/04/08 10:08:30;;;;;;;4.25;1.40;;;8.10;99.90;;;;;;5076422;28;20021;-80
2022/04/08 10:11:06;;;;;;;4.45;0.82;;;8.30;99.90;;;;;;5053498;28;20108;-80
2022/04/08 10:14:03;;;;;;;7.15;1.30;;;8.10;99.90;;;;;;5061466;28;20070;-80
2022/04/08 10:16:30;;;;;;;2.80;1.20;;;8.10;99.90;;;;;;5037274;28;20028;-79
2022/04/08 10:18:56;;;;;;;8.73;1.33;;;8.00;99.90;;;;;;5070249;28;20079;-80
2022/04/08 10:21:21;;;;;;;7.35;1.00;;;7.90;99.90;;;;;;5068446;28;20021;-79
2022/04/08 10:23:49;;;;;;;7.93;1.23;;;7.90;99.90;;;;;;5048870;28;20036;-80
2022/04/08 10:26:23;;;;;;;2.78;0.80;;;7.90;99.90;;;;;;5035707;28;20469;-79
2022/04/08 10:28:51;;;;;;;5.00;1.02;;;8.20;99.90;;;;;;5068481;28;20484;-80
2022/04/08 10:31:18;;;;;;;4.13;0.80;;;8.30;99.90;;;;;;5077052;28;20047;-81
2022/04/08 10:33:58;;;;;;;6.55;1.30;;;8.30;99.90;;;;;;5075487;28;20021;-80
2022/04/08 10:36:36;;;;;;;7.45;1.13;;;8.20;99.90;;;;;;5057961;28;20021;-81
2022/04/08 10:39:13;;;;;;;6.82;1.30;;;8.20;99.90;;;;;;5039108;28;20086;-80
2022/04/08 10:41:56;;;;;;;3.67;0.90;;;8.20;99.90;;;;;;5040708;28;20515;-82
2022/04/08 10:44:39;;;;;;;4.63;1.17;;;8.30;99.90;;;;;;5057008;28;20048;-79
2022/04/08 10:47:14;;;;;;;6.05;1.20;;;8.40;99.90;;;;;;5045503;28;20017;-81
2022/04/08 10:50:10;;;;;;;5.43;1.05;;;8.30;99.90;;;;;;5034766;28;20407;-80
2022/04/08 10:52:40;;;;;;;5.88;1.42;;;8.40;99.90;;;;;;5069987;28;20055;-80
2022/04/08 10:55:11;;;;;;;3.00;1.05;;;8.50;99.90;;;;;;5041102;28;20130;-80
2022/04/08 10:57:42;;;;;;;4.50;0.80;;;8.60;99.90;;;;;;5057929;28;20035;-80
2022/04/08 11:00:13;;;;;;;4.45;1.05;;;8.70;99.90;;;;;;5074018;28;20031;-80
2022/04/08 11:02:41;;;;;;;8.23;1.00;;;8.80;99.90;;;;;;5056750;28;20500;-80
2022/04/08 11:05:09;;;;;;;2.75;1.15;;;9.10;99.90;;;;;;5042809;28;20016;-80
2022/04/08 11:07:42;;;;;;;8.02;1.35;;;9.40;99.90;;;;;;5036049;28;20097;-77
2022/04/08 11:10:21;;;;;;;4.45;1.08;;;10.10;99.90;;;;;;5068454;28;20048;-81
2022/04/08 11:12:50;;;;;;;5.35;1.13;;;12.10;99.20;;;;;;5045916;28;20491;-81
2022/04/08 11:15:18;;;;;;;6.20;1.08;;;14.00;99.90;;;;;;5075667;28;20063;-81
2022/04/08 11:17:48;;;;;;;5.82;1.10;;;15.60;76.40;;;;;;5032685;28;20028;-81
2022/04/08 11:20:17;;;;;;;4.55;1.42;;;16.00;66.80;;;;;;5090018;28;20093;-82
2022/04/08 11:22:49;;;;;;;3.28;0.80;;;17.20;73.10;;;;;;5077094;28;20032;-79
2022/04/08 11:25:23;;;;;;;4.20;1.00;;;19.30;61.70;;;;;;5091980;28;20020;-78
2022/04/08 11:28:09;;;;;;;4.47;1.15;;;20.80;59.00;;;;;;5054692;28;20085;-81
2022/04/08 11:30:38;;;;;;;2.65;1.45;;;21.60;48.60;;;;;;5050998;28;20847;-77
2022/04/08 11:33:18;;;;;;;5.88;1.02;;;22.20;49.30;;;;;;5051583;28;20059;-74
2022/04/08 11:35:46;;;;;;;2.90;1.00;;;22.00;46.10;;;;;;5050157;28;20036;-73
2022/04/08 11:38:12;;;;;;;2.45;0.90;;;21.50;46.70;;;;;;5065932;28;20029;-72
2022/04/08 11:40:38;;;;;;;2.00;0.73;;;21.10;43.40;;;;;;5083159;28;20040;-72
2022/04/08 11:43:04;;;;;;;2.00;0.82;;;20.20;46.70;;;;;;5043285;28;20033;-72
2022/04/08 11:45:30;;;;;;;4.78;1.13;;;19.70;53.30;;;;;;5037574;28;20082;-70
2022/04/08 11:47:56;;;;;;;3.17;1.10;;;19.30;52.90;;;;;;5064983;28;20495;-73
2022/04/08 11:50:27;;;;;;;4.20;1.10;;;18.50;50.70;;;;;;5056797;28;20043;-72
2022/04/08 11:52:56;;;;;;;1.85;0.80;;;17.70;55.90;;;;;;5058046;28;20095;-73
2022/04/08 11:55:26;;;;;;;3.45;0.70;;;17.50;50.50;;;;;;5031375;28;20120;-83
2022/04/08 11:57:53;;;;;;;2.00;0.90;;;17.00;53.80;;;;;;5066368;28;20498;-80
2022/04/08 12:00:27;;;;;;;2.00;0.90;;;16.00;57.30;;;;;;5052019;28;20035;-80
2022/04/08 12:02:57;;;;;;;2.90;1.05;;;15.90;59.40;;;;;;5070155;28;20036;-81
2022/04/08 12:05:25;;;;;;;5.88;1.05;;;15.70;60.90;;;;;;5053968;28;20077;-80
2022/04/08 12:07:57;;;;;;;3.65;0.80;;;15.20;62.10;;;;;;5054897;28;20056;-78
2022/04/08 12:10:23;;;;;;;4.30;0.90;;;14.90;62.40;;;;;;5070771;28;20025;-80
2022/04/08 12:12:50;;;;;;;2.70;0.85;;;14.30;55.90;;;;;;5024203;28;20040;-79
2022/04/08 12:15:22;;;;;;;3.45;1.00;;;13.60;64.60;;;;;;5034399;28;20075;-80
2022/04/08 12:17:49;;;;;;;5.90;1.27;;;12.70;70.40;;;;;;5085316;28;20036;-81
2022/04/08 12:20:18;;;;;;;2.67;0.85;;;12.30;68.30;;;;;;5067187;28;20028;-80
2022/04/08 12:22:49;;;;;;;4.88;1.30;;;11.60;80.40;;;;;;5101700;28;20040;-79
2022/04/08 12:25:17;;;;;;;5.25;1.88;;;11.20;91.70;;;;;;5087494;28;20021;-82
2022/04/08 12:27:43;;;;;;;5.90;1.48;;;10.80;99.20;;;;;;5054444;28;20028;-80
2022/04/08 12:30:09;;;;;;;4.35;1.20;;;10.10;99.90;;;;;;5074681;28;20028;-79
2022/04/08 12:32:43;;;;;;;4.38;1.10;;;9.30;99.90;;;;;;5058405;28;20075;-80
2022/04/08 12:35:16;;;;;;;2.85;1.00;;;8.50;99.90;;;;;;5094122;28;20157;-80
2022/04/08 12:37:42;;;;;;;4.72;1.00;;;7.70;99.90;;;;;;5089755;28;20240;-80
2022/04/08 12:40:10;;;;;;;3.10;1.00;;;7.30;99.90;;;;;;5058748;28;20044;-80
2022/04/08 12:42:37;;;;;;;1.83;0.90;;;7.30;99.90;;;;;;5073895;28;20036;-81
2022/04/08 12:45:04;;;;;;;3.45;1.10;;;8.30;99.90;;;;;;5089966;28;20112;-81
2022/04/08 12:47:30;;;;;;;2.47;1.00;;;9.70;99.90;;;;;;5059635;28;20033;-83
2022/04/08 12:49:57;;;;;;;2.05;0.95;;;10.80;99.90;;;;;;5058385;28;20047;-81
2022/04/08 12:52:23;;;;;;;2.00;0.80;;;12.10;99.90;;;;;;5086321;28;20052;-80
2022/04/08 12:54:50;;;;;;;85.22;46.70;;;12.40;99.90;;;;;;5059406;28;20176;-81